createdAt,value
2022-12-28T00:01:18.597Z,9.70
2022-12-28T00:03:46.029Z,9.70
2022-12-28T00:06:14.072Z,9.70
2022-12-28T00:08:41.314Z,9.70
2022-12-28T00:11:20.431Z,9.70
2022-12-28T00:13:55.147Z,9.70
2022-12-28T00:16:27.509Z,9.70
2022-12-28T00:18:55.843Z,9.70
2022-12-28T00:21:23.403Z,9.70
2022-12-28T00:23:57.689Z,9.70
2022-12-28T00:26:30.235Z,9.60
2022-12-28T00:29:04.175Z,9.60
2022-12-28T00:31:33.713Z,9.60
2022-12-28T00:34:01.287Z,9.50
2022-12-28T00:37:12.361Z,9.50
2022-12-28T00:39:15.226Z,9.50
2022-12-28T00:41:42.220Z,9.60
2022-12-28T00:44:09.488Z,9.60
2022-12-28T00:46:36.583Z,9.60
2022-12-28T00:49:03.640Z,9.60
2022-12-28T00:51:30.650Z,9.70
2022-12-28T00:53:57.919Z,9.60
2022-12-28T00:56:24.952Z,9.70
2022-12-28T00:58:57.593Z,9.70
2022-12-28T01:01:25.530Z,9.60
2022-12-28T01:03:55.170Z,9.60
2022-12-28T01:06:22.214Z,9.50
2022-12-28T01:08:49.191Z,9.60
2022-12-28T01:11:29.612Z,9.50
2022-12-28T01:13:59.286Z,9.50
2022-12-28T01:16:29.323Z,9.60
2022-12-28T01:18:58.842Z,9.50
2022-12-28T01:21:28.426Z,9.50
2022-12-28T01:23:57.929Z,9.50
2022-12-28T01:26:25.992Z,9.50
2022-12-28T01:28:52.999Z,9.60
2022-12-28T01:31:20.928Z,9.60
2022-12-28T01:33:48.526Z,9.60
2022-12-28T01:36:18.341Z,9.50
2022-12-28T01:38:46.540Z,9.50
2022-12-28T01:41:19.041Z,9.50
2022-12-28T01:44:10.392Z,9.50
2022-12-28T01:46:49.955Z,9.50
2022-12-28T01:49:27.270Z,9.50
2022-12-28T01:52:12.012Z,9.50
2022-12-28T01:54:49.306Z,9.50
2022-12-28T01:57:17.282Z,9.50
2022-12-28T01:59:51.733Z,9.50
2022-12-28T02:02:22.089Z,9.50
2022-12-28T02:04:49.676Z,9.50
2022-12-28T02:07:28.173Z,9.60
2022-12-28T02:10:40.517Z,9.50
2022-12-28T02:12:47.062Z,9.50
2022-12-28T02:15:17.099Z,9.50
2022-12-28T02:17:48.353Z,9.50
2022-12-28T02:20:15.467Z,9.50
2022-12-28T02:22:58.941Z,9.50
2022-12-28T02:25:37.993Z,9.60
2022-12-28T02:28:37.226Z,9.60
2022-12-28T02:31:12.992Z,9.60
2022-12-28T02:33:56.648Z,9.60
2022-12-28T02:36:29.441Z,9.60
2022-12-28T02:39:05.756Z,9.70
2022-12-28T02:41:34.818Z,9.70
2022-12-28T02:44:02.306Z,9.70
2022-12-28T02:46:53.949Z,9.70
2022-12-28T02:49:46.507Z,9.70
2022-12-28T02:52:50.967Z,9.70
2022-12-28T02:55:39.709Z,9.80
2022-12-28T02:58:33.925Z,9.70
2022-12-28T03:01:20.046Z,9.70
2022-12-28T03:04:25.457Z,9.70
2022-12-28T03:07:19.002Z,9.70
2022-12-28T03:09:54.878Z,9.70
2022-12-28T03:12:37.910Z,9.70
2022-12-28T03:15:29.613Z,9.70
2022-12-28T03:18:28.339Z,9.70
2022-12-28T03:21:15.477Z,9.70
2022-12-28T03:24:05.235Z,9.70
2022-12-28T03:26:53.390Z,9.70
2022-12-28T03:29:41.785Z,9.70
2022-12-28T03:32:09.667Z,9.70
2022-12-28T03:34:37.290Z,9.70
2022-12-28T03:37:38.688Z,9.70
2022-12-28T03:40:19.215Z,9.70
2022-12-28T03:43:09.218Z,9.70
2022-12-28T03:45:46.546Z,9.70
2022-12-28T03:48:18.039Z,9.80
2022-12-28T03:50:48.459Z,9.80
2022-12-28T03:53:19.814Z,9.80
2022-12-28T03:55:48.972Z,9.80
2022-12-28T03:58:20.304Z,9.80
2022-12-28T04:00:47.438Z,9.80
2022-12-28T04:03:14.767Z,9.80
2022-12-28T04:05:42.963Z,9.80
2022-12-28T04:08:10.428Z,9.80
2022-12-28T04:10:37.608Z,9.80
2022-12-28T04:13:05.016Z,9.80
2022-12-28T04:16:00.640Z,9.80
2022-12-28T04:18:30.756Z,9.90
2022-12-28T04:20:58.272Z,9.80
2022-12-28T04:23:25.415Z,9.80
2022-12-28T04:26:08.198Z,9.80
2022-12-28T04:28:36.281Z,9.80
2022-12-28T04:31:19.393Z,9.80
2022-12-28T04:33:53.764Z,9.80
2022-12-28T04:36:20.808Z,9.80
2022-12-28T04:38:50.165Z,9.80
2022-12-28T04:41:17.168Z,9.80
2022-12-28T04:43:44.263Z,9.80
2022-12-28T04:46:14.153Z,9.80
2022-12-28T04:48:41.961Z,9.70
2022-12-28T04:51:21.435Z,9.70
2022-12-28T04:53:49.084Z,9.70
2022-12-28T04:56:17.582Z,9.70
2022-12-28T04:58:46.935Z,9.70
2022-12-28T05:01:17.234Z,9.70
2022-12-28T05:03:52.691Z,9.70
2022-12-28T05:06:23.931Z,9.70
2022-12-28T05:08:51.737Z,9.70
2022-12-28T05:11:21.867Z,9.70
2022-12-28T05:13:49.384Z,9.70
2022-12-28T05:16:21.989Z,9.70
2022-12-28T05:18:49.272Z,9.70
2022-12-28T05:21:21.859Z,9.70
2022-12-28T05:23:49.613Z,9.70
2022-12-28T05:26:18.815Z,9.70
2022-12-28T05:28:45.952Z,9.70
2022-12-28T05:31:16.071Z,9.70
2022-12-28T05:33:43.475Z,9.70
2022-12-28T05:36:16.050Z,9.70
2022-12-28T05:38:43.272Z,9.70
2022-12-28T05:41:14.717Z,9.70
2022-12-28T05:43:42.731Z,9.70
2022-12-28T05:46:12.533Z,9.80
2022-12-28T05:48:41.040Z,9.70
2022-12-28T05:51:19.291Z,9.80
2022-12-28T05:53:47.039Z,9.70
2022-12-28T05:56:18.438Z,9.70
2022-12-28T05:58:51.715Z,9.80
2022-12-28T06:01:21.824Z,9.80
2022-12-28T06:03:53.510Z,9.80
2022-12-28T06:06:21.202Z,9.80
2022-12-28T06:08:49.433Z,9.80
2022-12-28T06:11:23.070Z,9.80
2022-12-28T06:13:51.379Z,9.90
2022-12-28T06:16:24.157Z,9.90
2022-12-28T06:18:52.569Z,9.90
2022-12-28T06:21:21.307Z,9.90
2022-12-28T06:23:49.023Z,9.90
2022-12-28T06:26:19.015Z,9.90
2022-12-28T06:28:46.310Z,9.90
2022-12-28T06:31:18.548Z,9.90
2022-12-28T06:33:46.742Z,9.90
2022-12-28T06:36:22.576Z,10.00
2022-12-28T06:38:50.949Z,9.90
2022-12-28T06:41:19.555Z,9.90
2022-12-28T06:43:47.296Z,9.90
2022-12-28T06:46:16.077Z,9.90
2022-12-28T06:48:43.585Z,9.90
2022-12-28T06:51:24.244Z,9.90
2022-12-28T06:53:52.515Z,9.80
2022-12-28T06:56:22.138Z,9.80
2022-12-28T06:58:50.684Z,9.80
2022-12-28T07:01:20.605Z,9.80
2022-12-28T07:03:50.635Z,9.80
2022-12-28T07:06:19.568Z,9.80
2022-12-28T07:08:47.385Z,9.80
2022-12-28T07:11:18.348Z,9.70
2022-12-28T07:13:45.827Z,9.70
2022-12-28T07:16:19.473Z,9.70
2022-12-28T07:18:47.251Z,9.60
2022-12-28T07:21:21.545Z,9.60
2022-12-28T07:23:49.387Z,9.50
2022-12-28T07:26:24.824Z,9.50
2022-12-28T07:28:54.154Z,9.50
2022-12-28T07:31:23.788Z,9.50
2022-12-28T07:33:52.821Z,9.50
2022-12-28T07:36:21.199Z,9.50
2022-12-28T07:38:48.723Z,9.50
2022-12-28T07:41:41.991Z,9.50
2022-12-28T07:44:10.003Z,9.50
2022-12-28T07:46:38.042Z,9.50
2022-12-28T07:49:05.686Z,9.40
2022-12-28T07:51:37.703Z,9.50
2022-12-28T07:54:05.793Z,9.40
2022-12-28T07:59:04.876Z,9.50
2022-12-28T08:01:34.251Z,9.50
2022-12-28T08:04:07.059Z,9.50
2022-12-28T08:06:36.708Z,9.60
2022-12-28T08:09:05.139Z,9.60
2022-12-28T08:11:34.270Z,9.70
2022-12-28T08:14:02.221Z,9.70
2022-12-28T08:16:32.990Z,9.80
2022-12-28T08:19:00.430Z,9.90
2022-12-28T08:21:42.129Z,9.90
2022-12-28T08:24:12.940Z,10.00
2022-12-28T08:26:40.859Z,10.00
2022-12-28T08:29:10.710Z,10.10
2022-12-28T08:31:40.775Z,10.10
2022-12-28T08:34:10.699Z,10.00
2022-12-28T08:36:37.786Z,10.00
2022-12-28T08:39:04.943Z,10.00
2022-12-28T08:41:31.984Z,10.00
2022-12-28T08:43:59.272Z,10.00
2022-12-28T08:46:31.857Z,10.00
2022-12-28T08:49:00.154Z,10.00
2022-12-28T08:51:36.139Z,10.10
2022-12-28T08:54:03.792Z,10.10
2022-12-28T08:56:35.012Z,10.10
2022-12-28T08:59:02.874Z,10.20
2022-12-28T09:01:42.594Z,10.20
2022-12-28T09:04:14.557Z,10.30
2022-12-28T09:06:41.625Z,10.40
2022-12-28T09:09:12.392Z,10.50
2022-12-28T09:11:40.450Z,10.50
2022-12-28T09:14:20.481Z,10.60
2022-12-28T09:16:50.356Z,10.70
2022-12-28T09:19:17.347Z,10.80
2022-12-28T09:21:48.885Z,10.90
2022-12-28T09:24:15.870Z,10.90
2022-12-28T09:26:43.266Z,11.00
2022-12-28T09:29:12.516Z,11.00
2022-12-28T09:31:41.635Z,11.10
2022-12-28T09:37:00.564Z,11.10
2022-12-28T09:39:27.898Z,11.20
2022-12-28T09:42:17.401Z,11.10
2022-12-28T09:44:53.724Z,11.20
2022-12-28T09:47:58.848Z,11.20
2022-12-28T09:50:35.410Z,11.30
2022-12-28T09:53:38.676Z,11.40
2022-12-28T09:56:28.785Z,11.40
2022-12-28T09:58:56.609Z,11.40
2022-12-28T10:01:25.148Z,11.40
2022-12-28T10:03:52.330Z,11.50
2022-12-28T10:06:29.539Z,11.50
2022-12-28T10:09:01.840Z,11.50
2022-12-28T10:11:35.902Z,11.50
2022-12-28T10:14:34.565Z,11.50
2022-12-28T10:17:02.971Z,11.50
2022-12-28T10:19:30.062Z,11.50
2022-12-28T10:22:01.915Z,11.50
2022-12-28T10:24:31.894Z,11.50
2022-12-28T10:27:02.471Z,11.50
2022-12-28T10:29:32.232Z,11.50
2022-12-28T10:32:12.765Z,11.60
2022-12-28T10:35:03.381Z,11.60
2022-12-28T10:37:37.508Z,11.60
2022-12-28T10:40:18.500Z,11.70
2022-12-28T10:42:52.116Z,11.70
2022-12-28T10:45:22.684Z,11.80
2022-12-28T10:47:55.826Z,11.80
2022-12-28T10:50:49.872Z,11.90
2022-12-28T10:53:39.926Z,11.90
2022-12-28T10:56:12.438Z,11.90
2022-12-28T10:58:42.561Z,11.90
2022-12-28T11:01:12.396Z,11.90
2022-12-28T11:03:41.845Z,11.90
2022-12-28T11:06:27.102Z,11.90
2022-12-28T11:09:12.860Z,11.80
2022-12-28T11:11:42.800Z,11.90
2022-12-28T11:14:32.137Z,11.80
2022-12-28T11:17:09.084Z,11.80
2022-12-28T11:19:36.136Z,11.80
2022-12-28T11:22:03.082Z,11.80
2022-12-28T11:24:33.460Z,11.80
2022-12-28T11:27:03.890Z,11.90
2022-12-28T11:29:31.207Z,11.90
2022-12-28T11:32:13.030Z,11.90
2022-12-28T11:34:40.833Z,11.90
2022-12-28T11:37:14.363Z,11.90
2022-12-28T11:39:49.605Z,12.00
2022-12-28T11:42:39.975Z,11.90
2022-12-28T11:45:15.651Z,11.90
2022-12-28T11:47:42.840Z,11.90
2022-12-28T11:50:50.086Z,11.90
2022-12-28T11:53:23.649Z,11.90
2022-12-28T11:56:04.990Z,12.00
2022-12-28T11:58:35.805Z,12.00
2022-12-28T12:01:02.864Z,12.00
2022-12-28T12:03:57.963Z,12.00
2022-12-28T12:06:43.304Z,12.00
2022-12-28T12:09:22.535Z,12.00
2022-12-28T12:11:57.875Z,12.00
2022-12-28T12:14:32.200Z,12.10
2022-12-28T12:17:27.219Z,12.00
2022-12-28T12:19:59.873Z,12.00
2022-12-28T12:22:35.013Z,12.00
2022-12-28T12:25:15.210Z,12.10
2022-12-28T12:27:46.978Z,12.10
2022-12-28T12:30:16.494Z,12.10
2022-12-28T12:32:56.773Z,12.10
2022-12-28T12:35:29.309Z,12.10
2022-12-28T12:38:29.065Z,12.10
2022-12-28T12:41:19.735Z,12.10
2022-12-28T12:44:04.069Z,12.00
2022-12-28T12:47:05.268Z,12.00
2022-12-28T12:49:54.524Z,11.90
2022-12-28T12:52:30.059Z,11.90
2022-12-28T12:55:05.774Z,11.90
2022-12-28T12:58:00.548Z,12.00
2022-12-28T13:00:48.921Z,11.90
2022-12-28T13:03:37.927Z,12.00
2022-12-28T13:06:06.219Z,12.00
2022-12-28T13:08:42.408Z,12.00
2022-12-28T13:11:12.118Z,12.10
2022-12-28T13:13:41.262Z,12.10
2022-12-28T13:16:36.055Z,12.10
2022-12-28T13:19:06.654Z,12.10
2022-12-28T13:21:45.562Z,12.20
2022-12-28T13:24:29.485Z,12.30
2022-12-28T13:26:58.811Z,12.40
2022-12-28T13:29:31.560Z,12.50
2022-12-28T13:31:58.767Z,12.60
2022-12-28T13:34:35.152Z,12.70
2022-12-28T13:37:13.734Z,12.80
2022-12-28T13:39:42.384Z,12.80
2022-12-28T13:42:17.033Z,12.80
2022-12-28T13:44:49.504Z,12.80
2022-12-28T13:47:16.445Z,12.80
2022-12-28T13:49:46.282Z,12.80
2022-12-28T13:52:19.417Z,12.70
2022-12-28T13:54:54.612Z,12.70
2022-12-28T14:00:12.043Z,12.70
2022-12-28T14:02:41.724Z,12.70
2022-12-28T14:05:15.492Z,12.70
2022-12-28T14:07:42.614Z,12.70
2022-12-28T14:10:11.436Z,12.70
2022-12-28T14:12:39.201Z,12.70
2022-12-28T14:15:07.784Z,12.70
2022-12-28T14:17:37.189Z,12.60
2022-12-28T14:20:04.713Z,12.60
2022-12-28T14:22:34.361Z,12.60
2022-12-28T14:25:14.305Z,12.50
2022-12-28T14:28:06.072Z,12.50
2022-12-28T14:30:42.105Z,12.40
2022-12-28T14:33:24.613Z,12.40
2022-12-28T14:35:58.660Z,12.40
2022-12-28T14:38:33.819Z,12.40
2022-12-28T14:41:02.474Z,12.30
2022-12-28T14:43:33.103Z,12.30
2022-12-28T14:46:28.124Z,12.30
2022-12-28T14:48:55.346Z,12.30
2022-12-28T14:51:31.845Z,12.30
2022-12-28T14:54:17.686Z,12.20
2022-12-28T14:56:49.532Z,12.20
2022-12-28T14:59:24.997Z,12.20
2022-12-28T15:01:52.645Z,12.20
2022-12-28T15:04:36.873Z,12.10
2022-12-28T15:07:05.961Z,12.10
2022-12-28T15:09:33.612Z,12.10
2022-12-28T15:12:29.744Z,12.00
2022-12-28T15:14:56.762Z,12.00
2022-12-28T15:17:26.900Z,11.90
2022-12-28T15:19:58.616Z,11.90
2022-12-28T15:22:25.622Z,11.90
2022-12-28T15:24:52.653Z,11.80
2022-12-28T15:27:19.624Z,11.80
2022-12-28T15:32:33.673Z,11.70
2022-12-28T15:35:00.639Z,11.60
2022-12-28T15:37:27.657Z,11.60
2022-12-28T15:39:54.630Z,11.50
2022-12-28T15:42:21.626Z,11.50
2022-12-28T15:44:51.158Z,11.40
2022-12-28T15:47:18.101Z,11.40
2022-12-28T15:49:45.146Z,11.30
2022-12-28T15:52:12.337Z,11.30
2022-12-28T15:54:42.503Z,11.20
2022-12-28T15:57:14.252Z,11.20
2022-12-28T15:59:41.250Z,11.20
2022-12-28T16:02:11.352Z,11.20
2022-12-28T16:04:38.568Z,11.10
2022-12-28T16:07:05.606Z,11.10
2022-12-28T16:09:32.679Z,11.10
2022-12-28T16:11:59.705Z,11.10
2022-12-28T16:14:26.710Z,11.10
2022-12-28T16:16:53.801Z,11.00
2022-12-28T16:19:21.113Z,11.00
2022-12-28T16:21:51.820Z,11.00
2022-12-28T16:24:20.660Z,11.00
2022-12-28T16:26:47.821Z,11.00
2022-12-28T16:29:14.848Z,10.90
2022-12-28T16:31:42.190Z,10.90
2022-12-28T16:34:15.150Z,10.90
2022-12-28T16:36:44.825Z,10.90
2022-12-28T16:39:17.524Z,10.90
2022-12-28T16:41:44.950Z,10.80
2022-12-28T16:44:17.776Z,10.80
2022-12-28T16:46:44.757Z,10.80
2022-12-28T16:49:12.034Z,10.90
2022-12-28T16:51:41.811Z,10.90
2022-12-28T16:54:12.340Z,10.90
2022-12-28T16:56:39.357Z,10.90
2022-12-28T16:59:06.308Z,10.90
2022-12-28T17:01:33.447Z,10.90
2022-12-28T17:04:04.170Z,10.90
2022-12-28T17:06:31.699Z,10.90
2022-12-28T17:09:04.086Z,10.90
2022-12-28T17:11:31.320Z,10.90
2022-12-28T17:14:06.909Z,10.90
2022-12-28T17:16:36.124Z,10.90
2022-12-28T17:19:03.802Z,10.90
2022-12-28T17:21:32.686Z,10.90
2022-12-28T17:23:59.987Z,10.90
2022-12-28T17:26:27.203Z,10.90
2022-12-28T17:28:54.549Z,10.80
2022-12-28T17:31:22.900Z,10.80
2022-12-28T17:33:54.106Z,10.80
2022-12-28T17:36:22.102Z,10.90
2022-12-28T17:38:49.701Z,10.90
2022-12-28T17:41:22.914Z,10.90
2022-12-28T17:43:55.720Z,10.80
2022-12-28T17:46:26.067Z,10.80
2022-12-28T17:48:57.684Z,10.90
2022-12-28T17:51:26.383Z,10.80
2022-12-28T17:53:55.615Z,10.80
2022-12-28T17:56:22.642Z,10.80
2022-12-28T17:58:55.763Z,10.80
2022-12-28T18:01:22.917Z,10.80
2022-12-28T18:03:50.176Z,10.80
2022-12-28T18:06:17.621Z,10.80
2022-12-28T18:08:44.847Z,10.80
2022-12-28T18:11:12.253Z,10.80
2022-12-28T18:13:40.519Z,10.80
2022-12-28T18:16:10.507Z,10.70
2022-12-28T18:18:37.491Z,10.70
2022-12-28T18:21:07.614Z,10.80
2022-12-28T18:23:35.411Z,10.70
2022-12-28T18:26:12.131Z,10.70
2022-12-28T18:28:39.245Z,10.70
2022-12-28T18:31:07.079Z,10.70
2022-12-28T18:33:34.446Z,10.70
2022-12-28T18:36:06.867Z,10.70
2022-12-28T18:38:35.839Z,10.70
2022-12-28T18:41:02.862Z,10.70
2022-12-28T18:43:30.010Z,10.70
2022-12-28T18:46:02.964Z,10.70
2022-12-28T18:48:31.836Z,10.70
2022-12-28T18:51:02.101Z,10.70
2022-12-28T18:53:31.072Z,10.70
2022-12-28T18:56:05.517Z,10.70
2022-12-28T18:58:35.397Z,10.70
2022-12-28T19:01:32.480Z,10.70
2022-12-28T19:04:00.992Z,10.80
2022-12-28T19:06:29.404Z,10.80
2022-12-28T19:08:59.961Z,10.70
2022-12-28T19:11:27.698Z,10.70
2022-12-28T19:13:54.683Z,10.70
2022-12-28T19:16:27.195Z,10.70
2022-12-28T19:18:57.795Z,10.70
2022-12-28T19:21:29.017Z,10.70
2022-12-28T19:23:58.340Z,10.70
2022-12-28T19:26:25.804Z,10.70
2022-12-28T19:28:53.076Z,10.70
2022-12-28T19:31:20.261Z,10.70
2022-12-28T19:33:47.453Z,10.70
2022-12-28T19:36:14.474Z,10.60
2022-12-28T19:38:41.619Z,10.60
2022-12-28T19:41:11.072Z,10.60
2022-12-28T19:43:38.106Z,10.60
2022-12-28T19:46:09.145Z,10.60
2022-12-28T19:48:36.612Z,10.60
2022-12-28T19:51:04.485Z,10.60
2022-12-28T19:53:31.600Z,10.60
2022-12-28T19:56:03.667Z,10.60
2022-12-28T19:58:33.285Z,10.50
2022-12-28T20:01:05.466Z,10.50
2022-12-28T20:03:32.566Z,10.60
2022-12-28T20:06:09.913Z,10.50
2022-12-28T20:08:37.525Z,10.60
2022-12-28T20:11:05.851Z,10.60
2022-12-28T20:13:33.911Z,10.60
2022-12-28T20:16:00.982Z,10.60
2022-12-28T20:18:28.042Z,10.60
2022-12-28T20:21:21.142Z,10.60
2022-12-28T20:23:53.159Z,10.60
2022-12-28T20:26:21.791Z,10.60
2022-12-28T20:28:50.310Z,10.60
2022-12-28T20:31:17.687Z,10.60
2022-12-28T20:33:45.423Z,10.60
2022-12-28T20:36:14.657Z,10.60
2022-12-28T20:38:41.859Z,10.60
2022-12-28T20:41:31.162Z,10.60
2022-12-28T20:43:59.131Z,10.60
2022-12-28T20:46:26.686Z,10.60
2022-12-28T20:48:53.762Z,10.60
2022-12-28T20:51:20.786Z,10.60
2022-12-28T20:53:47.869Z,10.60
2022-12-28T20:56:14.856Z,10.60
2022-12-28T20:58:41.872Z,10.70
2022-12-28T21:01:13.781Z,10.70
2022-12-28T21:03:41.320Z,10.70
2022-12-28T21:06:09.303Z,10.60
2022-12-28T21:08:36.893Z,10.70
2022-12-28T21:11:04.871Z,10.60
2022-12-28T21:13:32.002Z,10.60
2022-12-28T21:15:59.387Z,10.60
2022-12-28T21:18:26.459Z,10.60
2022-12-28T21:21:01.303Z,10.60
2022-12-28T21:23:30.169Z,10.60
2022-12-28T21:26:04.224Z,10.70
2022-12-28T21:28:31.547Z,10.70
2022-12-28T21:30:59.961Z,10.70
2022-12-28T21:33:27.003Z,10.70
2022-12-28T21:36:04.701Z,10.70
2022-12-28T21:38:32.803Z,10.70
2022-12-28T21:41:05.105Z,10.70
2022-12-28T21:43:32.129Z,10.70
2022-12-28T21:46:02.451Z,10.70
2022-12-28T21:48:34.925Z,10.70
2022-12-28T21:51:31.257Z,10.70
2022-12-28T21:54:00.458Z,10.70
2022-12-28T21:56:28.251Z,10.80
2022-12-28T21:58:57.315Z,10.80
2022-12-28T22:01:43.344Z,10.80
2022-12-28T22:04:31.823Z,10.80
2022-12-28T22:06:59.320Z,10.80
2022-12-28T22:09:44.835Z,10.80
2022-12-28T22:12:31.259Z,10.80
2022-12-28T22:15:17.163Z,10.80
2022-12-28T22:17:44.606Z,10.80
2022-12-28T22:20:13.638Z,10.80
2022-12-28T22:22:42.801Z,10.80
2022-12-28T22:25:11.354Z,10.80
2022-12-28T22:27:38.564Z,10.80
2022-12-28T22:30:06.297Z,10.80
2022-12-28T22:32:33.254Z,10.80
2022-12-28T22:35:00.274Z,10.80
2022-12-28T22:37:27.237Z,10.80
2022-12-28T22:39:54.231Z,10.80
2022-12-28T22:42:21.268Z,10.80
2022-12-28T22:44:48.249Z,10.80
2022-12-28T22:47:15.234Z,10.80
2022-12-28T22:49:42.328Z,10.80
2022-12-28T22:52:09.350Z,10.80
2022-12-28T22:54:36.335Z,10.80
2022-12-28T22:57:03.584Z,10.80
2022-12-28T22:59:30.666Z,10.80
2022-12-28T23:01:57.802Z,10.80
2022-12-28T23:04:24.979Z,10.80
2022-12-28T23:06:52.053Z,10.80
2022-12-28T23:09:19.051Z,10.80
2022-12-28T23:11:46.041Z,10.80
2022-12-28T23:14:42.888Z,10.80
2022-12-28T23:17:14.986Z,10.80
2022-12-28T23:20:01.327Z,10.80
2022-12-28T23:22:49.738Z,10.80
2022-12-28T23:25:38.579Z,10.80
2022-12-28T23:28:09.227Z,10.80
2022-12-28T23:30:38.460Z,10.80
2022-12-28T23:33:05.643Z,10.80
2022-12-28T23:35:33.213Z,10.80
2022-12-28T23:38:00.195Z,10.80
2022-12-28T23:40:27.537Z,10.80
2022-12-28T23:42:54.697Z,10.80
2022-12-28T23:45:22.504Z,10.80
2022-12-28T23:47:52.631Z,10.80
2022-12-28T23:50:20.250Z,10.80
2022-12-28T23:52:47.193Z,10.80
2022-12-28T23:55:14.427Z,10.80
2022-12-28T23:57:41.786Z,10.80
